Saint-Tite, Canada
Current Conditions -  °F | °C
As of 11:00 AM on Friday 24 Oct 2014 (Local Time) from CYRQ Reporting Station
Overcast Overcast  
Wind Chill: 44°   Ceiling: 7000
Heat Index: 46°   Visibility: 9mi
Dew Point: 41°   Wind: 6mph
Humidity: 81%   Direction: 30°NNE
Pressure: 29.88"   Gusts: NA
Location:  46.72°N, 72.57°W
Report Text: CYRQ 241500Z AUTO 03005KT 9SM OVC070 08/05 A2988 RMK SLP120
Loading
Personal Weather Stations






























Interactive Weather Map
Tropical Storm Tracking
New forecast layout! Learn more

10-Day Weather Forecast

Advertisements
Track Severe Weather on mobile